Terminal Aerodrome Forecast
Issued by NWS Pocatello, ID

Home | Current Version | Previous Version | Text Only | Print | Product List | Glossary On
Versions: 1 2 3 4 5 6 7 8 9 10 11 12 13 14 15 16 17 18 19 20 21 22 23 24 25 26 27 28
000
FTUS45 KPIH 280000 AAA
TAFIDA
TAF AMD
KIDA 280009Z 2800/2824 VRB06KT 1SM -SN BR BKN016 OVC030
     FM280300 21009KT 1SM -SN BR OVC010
     FM281100 21015KT 2SM -SN OVC007
     FM282100 22011KT 3SM -SN SCT008 BKN020=

USA.gov is the U.S. government's official web portal to all federal, state and local government web resources and services.